Time;durP1;ratioP1;P1;durP2;ratioP2;P2;SDS_P1;SDS_P2;PMS_P1;PMS_P2;Temp;Humidity;BMP_temperature;BMP_pressure;BME280_temperature;BME280_humidity;BME280_pressure;Samples;Min_cycle;Max_cycle;Signal;HPM_P1;HPM_P2
2023/01/17 00:00:08;;;;;;;3.80;2.38;;;;;;;4.08;89.24;96446.72;5044855;28;20035;-81
2023/01/17 00:02:33;;;;;;;5.05;2.15;;;;;;;4.03;89.83;96452.19;5043853;28;20033;-82
2023/01/17 00:10:27;;;;;;;5.03;2.10;;;;;;;3.81;89.29;96453.75;5043867;28;20036;-82
2023/01/17 00:12:58;;;;;;;4.88;2.13;;;;;;;3.82;90.33;96460.72;5044190;28;20163;-83
2023/01/17 00:15:25;;;;;;;4.65;1.73;;;;;;;4.01;90.57;96467.88;5044470;28;20032;-82
2023/01/17 00:17:51;;;;;;;4.07;2.05;;;;;;;4.03;88.77;96470.28;5043585;28;20123;-82
2023/01/17 00:26:02;;;;;;;5.93;1.80;;;;;;;4.31;88.34;96476.41;5044026;28;20410;-83
2023/01/17 01:35:21;;;;;;;6.85;3.42;;;;;;;3.85;89.10;96594.88;5045772;28;20399;-82
2023/01/17 01:37:47;;;;;;;4.20;2.45;;;;;;;3.78;88.48;96594.50;5044751;28;20037;-79
2023/01/17 01:40:13;;;;;;;4.97;2.38;;;;;;;3.40;90.46;96621.56;5045577;28;20029;-82
2023/01/17 01:42:55;;;;;;;3.95;1.40;;;;;;;3.12;90.71;96617.66;5045585;28;20745;-82
2023/01/17 01:45:29;;;;;;;3.50;1.33;;;;;;;3.26;91.01;96627.69;5045247;28;20048;-82
2023/01/17 01:48:02;;;;;;;2.03;1.40;;;;;;;3.06;91.33;96635.00;5044871;28;20037;-83
2023/01/17 01:50:30;;;;;;;2.58;1.15;;;;;;;3.18;90.32;96639.13;5045130;28;20032;-82
2023/01/17 01:52:59;;;;;;;1.75;0.50;;;;;;;3.18;90.01;96633.72;5043999;28;20043;-84
2023/01/17 01:55:32;;;;;;;4.75;1.25;;;;;;;3.30;90.21;96644.84;5045212;28;20032;-82
2023/01/17 01:58:01;;;;;;;3.58;1.25;;;;;;;3.54;89.50;96641.22;5044456;28;20037;-82
2023/01/17 02:00:32;;;;;;;3.50;1.52;;;;;;;3.37;88.50;96645.28;5045418;28;20044;-82
2023/01/17 02:03:01;;;;;;;3.53;1.50;;;;;;;3.33;88.96;96660.44;5045225;28;20029;-82
2023/01/17 02:05:27;;;;;;;5.00;1.30;;;;;;;3.17;89.75;96656.38;5045142;28;20064;-82
2023/01/17 02:08:09;;;;;;;3.35;1.35;;;;;;;3.36;89.68;96654.47;5044192;28;20037;-82
2023/01/17 02:10:36;;;;;;;3.97;1.00;;;;;;;3.44;88.77;96649.50;5044804;28;20060;-82
2023/01/17 02:13:03;;;;;;;5.30;1.70;;;;;;;3.50;88.19;96659.06;5045341;28;20036;-83
2023/01/17 02:15:49;;;;;;;3.65;1.42;;;;;;;3.55;87.67;96661.72;5045839;28;20064;-83
2023/01/17 02:18:32;;;;;;;4.55;2.15;;;;;;;3.59;87.83;96668.09;5044911;28;20099;-83
2023/01/17 02:21:22;;;;;;;5.78;2.58;;;;;;;3.66;88.38;96675.00;5045961;28;20028;-83
2023/01/17 02:24:07;;;;;;;10.15;3.10;;;;;;;3.62;88.54;96670.19;5044825;28;20033;-81
2023/01/17 02:26:52;;;;;;;21.05;3.30;;;;;;;3.57;87.14;96686.47;5045097;28;20501;-81
2023/01/17 02:29:39;;;;;;;7.55;2.85;;;;;;;3.19;88.63;96687.31;5045010;28;20033;-83
2023/01/17 02:32:07;;;;;;;4.97;2.50;;;;;;;3.10;89.08;96694.44;5044027;28;20075;-81
2023/01/17 02:34:46;;;;;;;7.53;2.90;;;;;;;3.22;89.70;96699.38;5045462;28;20068;-82
2023/01/17 02:37:18;;;;;;;5.22;3.03;;;;;;;3.32;89.50;96699.22;5044888;28;20387;-82
2023/01/17 02:39:53;;;;;;;8.70;3.22;;;;;;;3.13;88.70;96700.03;5045138;28;20036;-82
2023/01/17 02:42:25;;;;;;;7.38;3.20;;;;;;;3.20;89.22;96698.84;5044751;28;20051;-81
2023/01/17 02:44:51;;;;;;;4.05;2.47;;;;;;;3.27;87.66;96704.69;5045062;28;20041;-82
2023/01/17 02:47:23;;;;;;;4.85;2.40;;;;;;;3.35;88.80;96701.34;5044637;28;20047;-82
2023/01/17 02:49:51;;;;;;;4.65;2.20;;;;;;;3.10;87.38;96697.94;5043871;28;20482;-83
2023/01/17 02:52:43;;;;;;;6.80;2.38;;;;;;;2.87;88.56;96731.88;5045121;28;20070;-82
2023/01/17 02:55:27;;;;;;;1.40;0.98;;;;;;;2.67;89.61;96739.09;5044665;28;20044;-82
2023/01/17 02:58:14;;;;;;;1.92;1.00;;;;;;;2.94;100.00;96759.25;5044793;28;20041;-82
2023/01/17 03:01:03;;;;;;;2.63;0.60;;;;;;;13.92;95.70;96725.69;5044733;28;20391;-82
2023/01/17 03:03:31;;;;;;;1.52;0.50;;;;;;;12.86;59.07;96716.03;5044899;28;20525;-82
2023/01/17 03:06:10;;;;;;;5.32;0.57;;;;;;;12.35;60.67;96725.72;5044732;28;20032;-81
2023/01/17 03:08:38;;;;;;;0.75;0.30;;;;;;;12.70;60.97;96751.56;5044241;28;20048;-81
2023/01/17 03:11:06;;;;;;;0.40;0.20;;;;;;;18.48;72.33;96743.41;5043982;28;20029;-81
2023/01/17 03:13:32;;;;;;;3.10;0.20;;;;;;;2.87;100.00;96786.50;5044317;28;20033;-81
2023/01/17 03:15:57;;;;;;;0.40;0.10;;;;;;;2.65;100.00;96800.47;5044454;28;20447;-81
2023/01/17 03:18:22;;;;;;;2.10;0.20;;;;;;;3.06;100.00;96791.13;5043946;28;20114;-80
2023/01/17 03:20:48;;;;;;;2.53;0.40;;;;;;;4.09;100.00;96788.03;5044394;28;20056;-80
2023/01/17 03:23:13;;;;;;;1.20;0.35;;;;;;;8.46;100.00;96779.38;5043955;28;20039;-80
2023/01/17 03:25:38;;;;;;;1.27;0.57;;;;;;;3.24;100.00;96796.81;5044138;28;20059;-80
2023/01/17 03:28:04;;;;;;;1.48;0.60;;;;;;;3.45;100.00;96801.94;5043020;28;20041;-80
2023/01/17 03:30:29;;;;;;;1.67;0.30;;;;;;;2.51;100.00;96789.59;5043935;28;20060;-80
2023/01/17 03:32:54;;;;;;;2.30;0.45;;;;;;;2.95;100.00;96805.81;5044165;28;20037;-79
2023/01/17 03:35:19;;;;;;;1.73;0.80;;;;;;;1.53;100.00;96813.50;5043989;28;20045;-80
2023/01/17 03:37:45;;;;;;;2.13;0.70;;;;;;;1.58;100.00;96818.84;5043294;28;20294;-80
2023/01/17 03:40:10;;;;;;;1.58;0.85;;;;;;;1.59;100.00;96818.53;5043782;28;20051;-80
2023/01/17 03:42:35;;;;;;;5.13;1.30;;;;;;;1.67;100.00;96819.84;5043520;28;20036;-81
2023/01/17 03:45:01;;;;;;;0.80;0.50;;;;;;;1.77;100.00;96813.59;5043673;28;20076;-81
2023/01/17 03:47:26;;;;;;;2.17;0.95;;;;;;;1.83;100.00;96830.50;5043512;28;20039;-81
2023/01/17 03:49:51;;;;;;;1.95;0.73;;;;;;;1.92;100.00;96834.19;5043725;28;20040;-81
2023/01/17 03:52:17;;;;;;;1.83;0.63;;;;;;;2.01;100.00;96836.28;5043740;28;20032;-81
2023/01/17 03:54:42;;;;;;;3.13;0.93;;;;;;;1.95;100.00;96841.66;5043805;28;20065;-81
2023/01/17 03:57:07;;;;;;;2.45;0.90;;;;;;;2.25;100.00;96843.63;5043598;28;20246;-81
2023/01/17 03:59:33;;;;;;;3.78;1.20;;;;;;;2.21;100.00;96849.56;5043428;28;20033;-82
2023/01/17 04:01:58;;;;;;;3.50;1.60;;;;;;;2.48;100.00;96857.41;5043482;28;20911;-82
2023/01/17 04:04:23;;;;;;;3.88;1.65;;;;;;;2.51;100.00;96856.81;5044006;28;20443;-82
2023/01/17 04:06:49;;;;;;;6.10;1.83;;;;;;;2.78;100.00;96859.00;5043356;28;20040;-82
2023/01/17 04:09:14;;;;;;;3.10;1.15;;;;;;;2.59;100.00;96858.91;5042821;28;20253;-82
2023/01/17 04:11:39;;;;;;;3.47;0.90;;;;;;;2.53;100.00;96871.59;5042589;28;20486;-82
2023/01/17 04:14:04;;;;;;;2.27;1.13;;;;;;;2.59;100.00;96861.59;5041721;28;20064;-81
2023/01/17 04:16:31;;;;;;;2.70;1.13;;;;;;;2.44;100.00;96874.09;5043030;28;20278;-81
2023/01/17 04:18:56;;;;;;;5.72;0.75;;;;;;;2.63;100.00;96873.41;5042698;28;20300;-82
2023/01/17 04:21:22;;;;;;;5.90;1.20;;;;;;;2.85;100.00;96866.72;5043495;28;20036;-81
2023/01/17 04:23:48;;;;;;;2.70;1.27;;;;;;;2.82;100.00;96864.63;5043559;28;20552;-81
2023/01/17 04:26:13;;;;;;;3.70;1.42;;;;;;;2.98;100.00;96869.81;5043393;28;20041;-82
2023/01/17 04:28:39;;;;;;;2.58;0.90;;;;;;;2.96;100.00;96862.03;5042881;28;20037;-82
2023/01/17 04:31:04;;;;;;;3.65;1.88;;;;;;;2.79;100.00;96859.78;5043136;28;20025;-82
2023/01/17 04:33:29;;;;;;;5.07;2.17;;;;;;;2.94;100.00;96866.09;5043261;28;20450;-82
2023/01/17 04:35:55;;;;;;;5.13;1.90;;;;;;;2.82;99.76;96864.63;5042985;28;20029;-82
2023/01/17 04:38:22;;;;;;;6.20;3.70;;;;;;;2.72;99.17;96870.09;5042671;28;20043;-80
2023/01/17 04:40:47;;;;;;;6.28;2.60;;;;;;;2.88;99.53;96871.53;5044493;28;20044;-82
2023/01/17 04:43:13;;;;;;;4.55;2.63;;;;;;;2.90;98.32;96872.06;5047261;28;20037;-81
2023/01/17 04:45:39;;;;;;;8.75;2.25;;;;;;;3.03;98.44;96875.94;5046666;28;20077;-81
2023/01/17 04:48:05;;;;;;;6.53;2.83;;;;;;;3.01;97.01;96869.25;5046961;28;20379;-81
2023/01/17 04:50:31;;;;;;;5.30;2.15;;;;;;;3.13;96.49;96872.34;5046936;28;20662;-81
2023/01/17 04:52:58;;;;;;;8.65;3.28;;;;;;;3.07;94.61;96878.88;5047037;28;20029;-81
2023/01/17 04:55:24;;;;;;;3.55;2.00;;;;;;;3.15;94.53;96886.31;5046768;28;20060;-81
2023/01/17 04:57:49;;;;;;;8.38;3.70;;;;;;;3.17;93.83;96877.16;5046421;28;21240;-81
2023/01/17 05:00:15;;;;;;;8.63;4.43;;;;;;;2.99;93.25;96874.91;5046866;28;20040;-81
2023/01/17 05:02:40;;;;;;;8.40;3.30;;;;;;;2.97;92.95;96879.00;5046828;28;20121;-81
2023/01/17 05:05:06;;;;;;;5.78;3.22;;;;;;;3.10;93.66;96872.13;5047015;28;20123;-81
2023/01/17 05:07:31;;;;;;;6.80;2.97;;;;;;;2.82;92.62;96878.06;5046664;28;20079;-81
2023/01/17 05:09:59;;;;;;;9.40;2.92;;;;;;;2.95;93.04;96883.88;5046613;28;20067;-82
2023/01/17 05:12:24;;;;;;;7.68;3.15;;;;;;;2.96;92.48;96883.56;5046938;28;20693;-82
2023/01/17 05:14:50;;;;;;;5.00;2.58;;;;;;;2.78;92.85;96893.19;5046625;28;20029;-80
2023/01/17 05:17:15;;;;;;;6.30;2.05;;;;;;;2.87;93.07;96893.34;5046741;28;20040;-79
2023/01/17 05:19:40;;;;;;;10.75;2.83;;;;;;;3.09;92.51;96898.22;5047038;28;20051;-81
2023/01/17 05:22:13;;;;;;;5.67;2.23;;;;;;;3.09;92.00;96890.16;5046883;28;20143;-82
2023/01/17 05:24:43;;;;;;;6.05;2.72;;;;;;;2.99;91.09;96898.34;5047184;28;20264;-81
2023/01/17 05:27:08;;;;;;;6.85;1.75;;;;;;;2.97;91.03;96904.00;5046587;28;20117;-80
2023/01/17 05:29:34;;;;;;;4.70;1.95;;;;;;;2.78;91.99;96909.31;5046065;28;20171;-81
2023/01/17 05:31:59;;;;;;;5.78;2.10;;;;;;;2.91;92.51;96899.75;5046251;28;20435;-82
2023/01/17 05:34:24;;;;;;;15.55;2.75;;;;;;;2.89;91.58;96912.69;5046327;28;20400;-81
2023/01/17 05:36:50;;;;;;;6.50;1.73;;;;;;;2.82;91.74;96915.75;5046174;28;20187;-81
2023/01/17 05:39:15;;;;;;;5.05;2.38;;;;;;;2.96;92.01;96915.06;5045370;28;20439;-81
2023/01/17 05:41:40;;;;;;;5.65;1.70;;;;;;;2.97;91.26;96922.84;5046027;28;20047;-81
2023/01/17 05:44:05;;;;;;;6.93;2.80;;;;;;;3.11;90.64;96924.88;5046073;28;20101;-81
2023/01/17 05:46:31;;;;;;;5.07;2.92;;;;;;;3.00;90.64;96933.06;5045799;28;20270;-80
2023/01/17 05:48:56;;;;;;;5.45;2.58;;;;;;;3.17;90.87;96931.00;5045363;28;20048;-80
2023/01/17 05:51:21;;;;;;;6.03;2.65;;;;;;;3.21;90.64;96932.06;5045628;28;20053;-80
2023/01/17 05:53:46;;;;;;;5.80;2.40;;;;;;;3.16;90.24;96946.34;5045825;28;20048;-81
2023/01/17 05:56:12;;;;;;;6.13;2.60;;;;;;;3.17;89.79;96934.53;5045348;28;20028;-83
2023/01/17 05:58:38;;;;;;;9.27;3.25;;;;;;;3.25;89.54;96941.94;5045479;28;20271;-83
2023/01/17 06:01:04;;;;;;;7.80;2.85;;;;;;;3.10;89.26;96948.31;5045659;28;20064;-83
2023/01/17 06:03:29;;;;;;;8.20;2.83;;;;;;;3.32;90.00;96955.06;5045601;28;20116;-82
2023/01/17 06:05:54;;;;;;;6.27;2.83;;;;;;;3.13;88.13;96953.09;5045777;28;20380;-82
2023/01/17 06:08:22;;;;;;;6.75;3.42;;;;;;;3.05;88.65;96961.84;5044351;28;20266;-82
2023/01/17 06:10:47;;;;;;;8.30;4.05;;;;;;;3.07;89.61;96965.00;5045887;28;20032;-82
2023/01/17 06:13:15;;;;;;;7.10;2.25;;;;;;;3.27;89.32;96968.59;5042216;28;20065;-82
2023/01/17 06:15:41;;;;;;;7.60;3.42;;;;;;;3.34;88.66;96963.69;5045814;28;20463;-82
2023/01/17 06:18:08;;;;;;;9.13;3.05;;;;;;;3.25;88.65;96971.56;5044858;28;20033;-81
2023/01/17 06:20:33;;;;;;;7.28;3.30;;;;;;;3.45;89.17;96977.03;5045490;28;20060;-82
2023/01/17 06:23:01;;;;;;;7.35;3.05;;;;;;;3.41;87.57;96966.03;5045590;28;20056;-82
2023/01/17 06:25:26;;;;;;;7.43;2.03;;;;;;;3.45;86.98;96974.34;5044996;28;20046;-82
2023/01/17 06:27:54;;;;;;;7.07;3.77;;;;;;;3.23;87.65;96986.44;5045065;28;20029;-82
2023/01/17 06:30:19;;;;;;;11.32;2.80;;;;;;;3.38;88.59;96978.19;5045544;28;20274;-81
2023/01/17 06:32:51;;;;;;;6.70;2.78;;;;;;;3.23;88.05;96984.53;5045633;28;20140;-82
2023/01/17 06:35:16;;;;;;;6.28;2.65;;;;;;;3.25;88.13;96976.94;5045787;28;20029;-81
2023/01/17 06:37:41;;;;;;;8.20;3.37;;;;;;;3.12;87.62;96974.94;5045614;28;20040;-82
2023/01/17 06:40:08;;;;;;;13.03;4.23;;;;;;;3.23;88.15;96989.13;5045064;28;20273;-80
2023/01/17 06:42:33;;;;;;;8.02;3.42;;;;;;;3.23;87.71;96984.53;5045163;28;20344;-80
2023/01/17 06:44:58;;;;;;;8.35;3.17;;;;;;;3.33;87.73;96989.03;5044612;28;20163;-81
2023/01/17 06:47:23;;;;;;;6.50;3.42;;;;;;;3.32;86.96;96994.66;5044914;28;20504;-82
2023/01/17 06:49:49;;;;;;;13.68;3.72;;;;;;;3.40;87.03;96987.88;5044605;28;20088;-81
2023/01/17 06:52:14;;;;;;;7.15;3.70;;;;;;;3.43;85.95;96990.78;5045076;28;20043;-81
2023/01/17 06:54:39;;;;;;;9.27;3.40;;;;;;;3.30;86.56;96994.97;5044496;28;20095;-82
2023/01/17 06:57:04;;;;;;;6.87;3.07;;;;;;;3.40;86.83;96994.03;5043339;28;20112;-81
2023/01/17 06:59:30;;;;;;;6.50;2.70;;;;;;;3.55;86.75;97006.56;5044243;28;20265;-81
2023/01/17 07:01:55;;;;;;;7.72;3.70;;;;;;;3.30;86.05;97005.72;5043483;28;20515;-79
2023/01/17 07:04:20;;;;;;;8.83;3.57;;;;;;;3.43;86.40;97009.66;5043919;28;20105;-81
2023/01/17 07:06:45;;;;;;;6.75;2.67;;;;;;;3.48;86.22;97011.47;5044288;28;20902;-81
2023/01/17 07:09:11;;;;;;;7.35;3.60;;;;;;;3.54;85.47;97009.56;5044324;28;20037;-81
2023/01/17 07:11:36;;;;;;;17.73;5.50;;;;;;;3.51;85.63;96992.06;5044247;28;20039;-81
2023/01/17 07:14:01;;;;;;;10.13;4.50;;;;;;;3.49;86.06;97007.69;5043019;28;20033;-81
2023/01/17 07:16:27;;;;;;;8.70;3.75;;;;;;;3.47;86.08;97004.50;5044382;28;20116;-81
2023/01/17 07:18:53;;;;;;;10.47;3.73;;;;;;;3.45;85.59;97006.66;5043945;28;20694;-81
2023/01/17 07:21:18;;;;;;;11.52;5.72;;;;;;;3.14;86.34;97008.56;5044265;28;20262;-81
2023/01/17 07:23:44;;;;;;;11.02;5.25;;;;;;;3.28;86.76;97013.28;5044377;28;20075;-81
2023/01/17 07:26:09;;;;;;;12.45;5.25;;;;;;;3.42;85.79;97018.03;5043452;28;20029;-81
2023/01/17 07:28:34;;;;;;;10.27;5.82;;;;;;;3.32;85.21;97014.31;5044010;28;20041;-82
2023/01/17 07:31:09;;;;;;;11.27;5.78;;;;;;;3.31;86.19;97023.50;5044170;28;20466;-82
2023/01/17 07:33:34;;;;;;;10.35;6.03;;;;;;;3.33;85.95;97021.34;5041497;28;20044;-82
2023/01/17 07:36:08;;;;;;;11.65;6.80;;;;;;;3.19;85.28;97025.78;5043607;28;20044;-82
2023/01/17 07:38:33;;;;;;;13.60;6.72;;;;;;;3.35;86.03;97024.56;5043166;28;20029;-80
2023/01/17 07:40:59;;;;;;;10.20;5.00;;;;;;;3.49;85.18;97029.25;5043230;28;20931;-81
2023/01/17 07:43:24;;;;;;;11.50;5.32;;;;;;;3.48;84.61;97028.44;5043914;28;20136;-81
2023/01/17 07:45:50;;;;;;;12.45;5.53;;;;;;;3.41;84.50;97033.38;5043447;28;20055;-81
2023/01/17 07:48:20;;;;;;;13.10;5.95;;;;;;;3.48;84.72;97038.41;5043628;28;20094;-82
2023/01/17 07:50:56;;;;;;;18.33;8.05;;;;;;;3.58;84.63;97027.53;5044002;28;20053;-82
2023/01/17 07:53:24;;;;;;;19.45;7.28;;;;;;;3.54;84.64;97036.50;5043981;28;20063;-81
2023/01/17 07:55:50;;;;;;;12.73;7.03;;;;;;;3.67;84.31;97024.22;5043483;28;20098;-82
2023/01/17 07:58:15;;;;;;;11.95;7.32;;;;;;;3.74;83.82;97032.78;5043172;28;20037;-83
2023/01/17 08:00:43;;;;;;;13.60;7.18;;;;;;;3.88;83.68;97023.97;5043690;28;20058;-81
2023/01/17 08:03:11;;;;;;;13.38;7.00;;;;;;;3.82;83.10;97029.41;5043880;28;20299;-82
2023/01/17 08:05:36;;;;;;;19.85;5.88;;;;;;;3.82;83.76;97026.72;5043875;28;20036;-83
2023/01/17 08:08:01;;;;;;;16.33;6.97;;;;;;;3.80;83.51;97025.44;5041973;28;20059;-82
2023/01/17 08:10:26;;;;;;;15.23;7.10;;;;;;;3.58;82.99;97027.53;5043307;28;20435;-82
2023/01/17 08:12:52;;;;;;;10.82;7.40;;;;;;;3.54;83.59;97026.50;5043091;28;20032;-81
2023/01/17 08:15:18;;;;;;;12.98;7.88;;;;;;;3.41;83.46;97032.56;5043042;28;20053;-81
2023/01/17 08:17:47;;;;;;;14.90;8.70;;;;;;;3.37;83.02;97026.94;5042113;28;20047;-80
2023/01/17 08:20:13;;;;;;;13.52;6.97;;;;;;;3.43;82.83;97025.00;5043559;28;20036;-82
2023/01/17 08:22:38;;;;;;;14.48;8.60;;;;;;;3.41;82.72;97025.31;5043429;28;20029;-82
2023/01/17 08:25:04;;;;;;;18.80;10.15;;;;;;;3.35;82.69;97024.56;5043159;28;20114;-82
2023/01/17 08:27:29;;;;;;;19.42;8.02;;;;;;;3.46;82.50;97024.41;5041520;28;20051;-84
2023/01/17 08:29:55;;;;;;;14.85;7.63;;;;;;;3.44;81.37;97021.25;5043171;28;20013;-83
2023/01/17 08:32:20;;;;;;;14.90;7.13;;;;;;;3.58;82.09;97016.75;5043261;28;20055;-82
2023/01/17 08:34:46;;;;;;;14.73;7.47;;;;;;;3.62;81.81;97017.78;5043084;28;20031;-82
2023/01/17 08:37:11;;;;;;;16.52;6.82;;;;;;;3.74;82.44;97030.06;5042985;28;20120;-82
2023/01/17 08:39:37;;;;;;;17.35;9.50;;;;;;;3.88;81.55;97029.38;5042825;28;20025;-82
2023/01/17 08:42:02;;;;;;;18.05;8.70;;;;;;;3.85;80.96;97026.16;5043005;28;20129;-85
2023/01/17 08:44:27;;;;;;;15.20;8.23;;;;;;;3.90;80.96;97035.28;5043221;28;20031;-83
2023/01/17 08:46:52;;;;;;;16.13;8.80;;;;;;;3.87;80.94;97036.66;5043664;28;20485;-81
2023/01/17 08:49:18;;;;;;;15.27;9.03;;;;;;;3.93;81.17;97040.09;5042898;28;20037;-83
2023/01/17 08:51:43;;;;;;;17.30;8.30;;;;;;;3.92;81.16;97035.78;5043790;28;20277;-82
2023/01/17 08:54:11;;;;;;;19.40;9.55;;;;;;;3.93;80.92;97040.91;5043219;28;20282;-83
2023/01/17 08:56:37;;;;;;;14.15;8.35;;;;;;;3.91;80.60;97044.97;5042137;28;20132;-83
2023/01/17 08:59:02;;;;;;;20.50;10.75;;;;;;;3.88;81.17;97050.94;5042589;28;20166;-83
2023/01/17 09:01:27;;;;;;;15.60;9.13;;;;;;;3.88;80.88;97062.53;5043321;28;20341;-83
2023/01/17 09:03:56;;;;;;;15.00;8.40;;;;;;;3.91;80.58;97055.75;5043558;28;20033;-83
2023/01/17 09:06:21;;;;;;;16.38;7.40;;;;;;;4.01;81.08;97057.53;5043714;28;20317;-82
2023/01/17 09:08:53;;;;;;;17.33;8.93;;;;;;;4.00;81.02;97054.03;5042949;28;20036;-80
2023/01/17 09:11:18;;;;;;;16.30;8.52;;;;;;;3.95;81.24;97041.41;5043038;28;20071;-82
2023/01/17 09:13:44;;;;;;;15.88;8.60;;;;;;;4.00;80.99;97043.25;5042979;28;20029;-83
2023/01/17 09:16:09;;;;;;;21.23;7.78;;;;;;;3.94;80.68;97039.00;5041736;28;20029;-82
2023/01/17 09:18:35;;;;;;;14.70;7.30;;;;;;;3.94;80.75;97041.72;5042330;28;20040;-82
2023/01/17 09:21:16;;;;;;;15.15;8.77;;;;;;;3.97;80.90;97043.81;5042142;28;20490;-83
2023/01/17 09:23:42;;;;;;;15.30;7.63;;;;;;;3.93;81.07;97040.91;5042560;28;20251;-83
2023/01/17 09:26:18;;;;;;;18.02;8.77;;;;;;;3.84;81.26;97051.50;5043081;28;20136;-81
2023/01/17 09:28:43;;;;;;;16.40;9.73;;;;;;;3.87;81.81;97052.00;5045918;28;20044;-80
2023/01/17 09:31:09;;;;;;;16.80;9.07;;;;;;;3.94;81.63;97061.38;5046291;28;20470;-81
2023/01/17 09:33:34;;;;;;;20.45;8.95;;;;;;;4.04;81.47;97063.16;5046573;28;20043;-83
2023/01/17 09:36:03;;;;;;;16.70;8.52;;;;;;;4.03;81.41;97064.22;5046025;28;20021;-82
2023/01/17 09:38:28;;;;;;;18.60;8.50;;;;;;;4.04;81.50;97073.13;5044985;28;20195;-80
2023/01/17 09:40:53;;;;;;;17.30;9.93;;;;;;;3.97;80.20;97068.06;5045683;28;20119;-82
2023/01/17 09:43:30;;;;;;;18.13;9.93;;;;;;;3.94;81.10;97066.78;5046417;28;20033;-82
2023/01/17 09:45:56;;;;;;;14.90;8.63;;;;;;;3.96;81.06;97074.56;5045674;28;20785;-82
2023/01/17 09:48:36;;;;;;;15.93;8.90;;;;;;;3.94;80.54;97071.34;5045402;28;20041;-81
2023/01/17 09:51:24;;;;;;;18.02;9.77;;;;;;;4.01;80.91;97062.94;5046207;28;20607;-86
2023/01/17 09:53:51;;;;;;;17.83;7.68;;;;;;;4.05;80.70;97059.34;5045906;28;20501;-81
2023/01/17 09:56:23;;;;;;;16.73;9.77;;;;;;;4.07;80.34;97062.56;5045469;28;20068;-83
2023/01/17 09:59:07;;;;;;;16.83;9.15;;;;;;;4.13;80.06;97067.91;5044782;28;20041;-81
2023/01/17 10:01:39;;;;;;;17.95;7.45;;;;;;;4.00;80.13;97072.09;5045823;28;20697;-82
2023/01/17 10:04:32;;;;;;;14.10;7.65;;;;;;;4.03;80.15;97064.22;5045736;28;20057;-81
2023/01/17 10:07:25;;;;;;;18.42;8.38;;;;;;;4.07;80.02;97065.25;5045302;28;20629;-83
2023/01/17 10:10:01;;;;;;;19.17;8.02;;;;;;;4.06;79.43;97071.75;5045509;28;20040;-80
2023/01/17 10:12:45;;;;;;;12.48;7.50;;;;;;;4.05;79.39;97072.03;5045531;28;20033;-82
2023/01/17 10:15:40;;;;;;;16.23;8.35;;;;;;;4.07;78.55;97070.66;5045629;28;20063;-81
2023/01/17 10:18:23;;;;;;;17.85;6.25;;;;;;;4.01;78.55;97077.19;5045182;28;20115;-82
2023/01/17 10:20:59;;;;;;;15.53;7.27;;;;;;;3.96;78.85;97074.56;5045640;28;20040;-82
2023/01/17 10:23:54;;;;;;;14.07;7.82;;;;;;;4.11;78.82;97073.56;5045682;28;20853;-82
2023/01/17 10:26:24;;;;;;;13.73;8.15;;;;;;;4.14;78.63;97081.09;5044754;28;20504;-81
2023/01/17 10:28:54;;;;;;;13.68;7.00;;;;;;;4.22;79.08;97082.34;5044493;28;20032;-81
2023/01/17 10:31:22;;;;;;;16.05;6.72;;;;;;;4.29;79.55;97082.78;5044635;28;20085;-80
2023/01/17 10:33:56;;;;;;;16.38;7.47;;;;;;;4.32;79.08;97071.44;5045890;28;20037;-83
2023/01/17 10:36:24;;;;;;;13.30;6.10;;;;;;;4.41;78.99;97078.88;5045921;28;20057;-81
2023/01/17 10:38:53;;;;;;;14.02;7.55;;;;;;;4.43;79.07;97069.41;5043250;28;20158;-81
2023/01/17 10:41:27;;;;;;;12.43;5.78;;;;;;;4.52;79.04;97072.25;5044438;28;20421;-81
2023/01/17 10:44:02;;;;;;;14.73;7.10;;;;;;;4.57;78.57;97070.56;5044220;28;20098;-80
2023/01/17 10:46:46;;;;;;;12.18;5.28;;;;;;;4.50;77.93;97066.34;5045174;28;20305;-81
2023/01/17 10:49:19;;;;;;;15.77;6.50;;;;;;;4.35;77.75;97069.25;5044616;28;20041;-81
2023/01/17 10:51:58;;;;;;;14.38;5.65;;;;;;;4.45;78.77;97069.13;5045548;28;20446;-82
2023/01/17 10:54:42;;;;;;;16.52;8.23;;;;;;;4.52;79.23;97069.56;5045247;28;20041;-82
2023/01/17 10:57:23;;;;;;;17.17;6.78;;;;;;;4.51;78.24;97072.56;5044788;28;20124;-81
2023/01/17 10:59:49;;;;;;;12.38;6.50;;;;;;;4.54;78.82;97072.75;5044917;28;20041;-81
2023/01/17 11:02:28;;;;;;;16.67;6.80;;;;;;;4.42;78.34;97067.00;5044778;28;20574;-80
2023/01/17 11:04:56;;;;;;;10.65;6.10;;;;;;;4.42;77.66;97065.09;5044115;28;20402;-82
2023/01/17 11:07:26;;;;;;;14.55;7.57;;;;;;;4.45;77.92;97058.34;5044623;28;20374;-83
2023/01/17 11:09:54;;;;;;;21.15;8.50;;;;;;;4.36;76.87;97054.66;5043164;28;20383;-79
2023/01/17 11:12:42;;;;;;;10.57;5.20;;;;;;;4.52;77.64;97061.47;5044577;28;20033;-81
2023/01/17 11:15:07;;;;;;;12.32;6.47;;;;;;;4.62;77.57;97057.00;5044156;28;20516;-81
2023/01/17 11:17:36;;;;;;;11.73;6.07;;;;;;;4.69;77.89;97062.84;5044550;28;20032;-83
2023/01/17 11:20:15;;;;;;;12.73;5.97;;;;;;;4.63;77.30;97061.31;5044537;28;20486;-82
2023/01/17 11:22:48;;;;;;;12.43;5.20;;;;;;;4.70;78.18;97059.03;5044766;28;20041;-81
2023/01/17 11:25:21;;;;;;;12.55;5.80;;;;;;;4.44;77.15;97056.72;5044408;28;20132;-82
2023/01/17 11:27:58;;;;;;;8.97;4.73;;;;;;;4.46;77.02;97059.13;5043282;28;20102;-80
2023/01/17 11:30:28;;;;;;;10.85;4.78;;;;;;;4.51;77.46;97057.16;5043255;28;20033;-80
2023/01/17 11:33:02;;;;;;;12.13;5.18;;;;;;;4.58;76.40;97058.72;5043462;28;20419;-82
2023/01/17 11:35:36;;;;;;;15.30;5.32;;;;;;;4.53;76.86;97060.38;5043500;28;20055;-81
2023/01/17 11:38:01;;;;;;;14.90;6.32;;;;;;;4.57;76.58;97060.59;5042941;28;20044;-81
2023/01/17 11:40:30;;;;;;;11.00;5.27;;;;;;;4.57;76.40;97065.19;5043182;28;20541;-81
2023/01/17 11:43:01;;;;;;;10.30;5.47;;;;;;;4.61;77.04;97058.09;5043309;28;20033;-81
2023/01/17 11:45:33;;;;;;;12.10;5.50;;;;;;;4.67;76.51;97057.75;5044031;28;20055;-81
2023/01/17 11:48:11;;;;;;;11.05;5.90;;;;;;;4.62;76.30;97051.59;5043184;28;20045;-80
2023/01/17 11:50:42;;;;;;;8.68;4.63;;;;;;;4.72;76.28;97062.25;5042239;28;20044;-81
2023/01/17 11:53:21;;;;;;;12.80;7.22;;;;;;;4.76;76.00;97057.88;5042226;28;20059;-81
2023/01/17 11:56:01;;;;;;;19.33;7.55;;;;;;;4.73;75.74;97047.69;5042972;28;20655;-84
2023/01/17 11:58:27;;;;;;;12.82;5.35;;;;;;;4.77;75.61;97048.69;5043156;28;20175;-81
2023/01/17 12:01:31;;;;;;;9.55;4.88;;;;;;;4.88;76.63;97046.63;5043740;28;20043;-80
2023/01/17 12:04:06;;;;;;;13.27;5.00;;;;;;;4.89;75.88;97042.84;5043426;28;20547;-80
2023/01/17 12:06:43;;;;;;;10.15;4.88;;;;;;;4.82;75.99;97038.91;5043872;28;20115;-80
2023/01/17 12:09:30;;;;;;;11.30;5.72;;;;;;;4.77;75.85;97043.31;5041880;28;20036;-80
2023/01/17 12:15:10;;;;;;;11.52;5.43;;;;;;;4.77;75.68;97027.09;5042860;28;20040;-81
2023/01/17 12:17:57;;;;;;;22.15;6.43;;;;;;;4.88;75.66;97027.72;5042826;28;20040;-80
2023/01/17 12:21:07;;;;;;;13.40;5.05;;;;;;;4.89;74.83;97023.13;5042520;28;20041;-82
2023/01/17 12:23:58;;;;;;;13.60;6.30;;;;;;;4.90;74.86;97019.34;5042223;28;20044;-80
2023/01/17 12:27:15;;;;;;;10.95;4.57;;;;;;;4.84;74.75;97026.72;5042898;28;20119;-80
2023/01/17 12:29:59;;;;;;;8.02;4.13;;;;;;;4.92;75.21;97027.97;5042362;28;20053;-82
2023/01/17 12:32:33;;;;;;;9.80;5.43;;;;;;;4.93;74.61;97034.94;5043214;28;20409;-82
2023/01/17 12:35:04;;;;;;;8.93;4.57;;;;;;;4.96;74.78;97025.47;5042638;28;20443;-81
2023/01/17 12:37:37;;;;;;;9.73;4.90;;;;;;;4.99;74.77;97028.38;5042568;28;20120;-82
2023/01/17 12:40:48;;;;;;;12.32;5.70;;;;;;;5.00;73.92;97024.56;5042924;28;20526;-81
2023/01/17 12:43:18;;;;;;;11.57;5.03;;;;;;;5.05;74.35;97026.38;5019924;28;20505;-81
2023/01/17 12:45:46;;;;;;;12.13;4.93;;;;;;;5.05;73.74;97026.38;5019809;28;20445;-82
2023/01/17 12:48:15;;;;;;;9.32;5.18;;;;;;;5.04;74.04;97021.28;5031046;28;20395;-81
2023/01/17 12:50:59;;;;;;;10.35;4.13;;;;;;;4.97;73.67;97025.16;5041036;28;20035;-80
2023/01/17 12:53:55;;;;;;;9.80;5.05;;;;;;;4.94;73.24;97031.16;5042408;28;20021;-81
2023/01/17 12:56:35;;;;;;;15.73;6.07;;;;;;;4.96;73.45;97031.69;5022353;28;20164;-79
2023/01/17 12:59:18;;;;;;;9.73;4.85;;;;;;;4.97;73.72;97027.06;5041509;28;20103;-81
2023/01/17 13:01:56;;;;;;;20.33;5.80;;;;;;;4.99;73.41;97028.38;5044354;28;20029;-83
2023/01/17 13:04:49;;;;;;;21.25;5.35;;;;;;;5.11;72.43;97025.22;5046885;28;20265;-81
2023/01/17 13:07:25;;;;;;;14.70;5.07;;;;;;;5.15;73.96;97025.41;5046842;28;20470;-81
2023/01/17 13:09:54;;;;;;;13.20;4.68;;;;;;;5.23;72.88;97021.22;5046309;28;20394;-81
2023/01/17 13:12:21;;;;;;;11.48;5.22;;;;;;;5.19;73.09;97023.72;5046464;28;20119;-81